sensor_id;sensor_type;location;lat;lon;timestamp;temperature;humidity
15143;DHT22;7672;50.834;6.286;2023-04-23T00:00:41;13.60;99.90
15143;DHT22;7672;50.834;6.286;2023-04-23T00:03:13;13.60;99.90
15143;DHT22;7672;50.834;6.286;2023-04-23T00:05:42;13.60;99.90
15143;DHT22;7672;50.834;6.286;2023-04-23T00:08:13;13.60;99.90
15143;DHT22;7672;50.834;6.286;2023-04-23T00:10:44;13.50;99.90
15143;DHT22;7672;50.834;6.286;2023-04-23T00:13:13;13.60;99.90
15143;DHT22;7672;50.834;6.286;2023-04-23T00:15:40;13.50;99.90
15143;DHT22;7672;50.834;6.286;2023-04-23T00:18:07;13.50;99.90
15143;DHT22;7672;50.834;6.286;2023-04-23T00:20:34;14.30;99.90
15143;DHT22;7672;50.834;6.286;2023-04-23T00:23:02;13.60;99.90
15143;DHT22;7672;50.834;6.286;2023-04-23T00:25:29;14.20;99.90
15143;DHT22;7672;50.834;6.286;2023-04-23T00:28:01;13.40;99.90
15143;DHT22;7672;50.834;6.286;2023-04-23T00:30:28;13.40;99.90
15143;DHT22;7672;50.834;6.286;2023-04-23T00:32:55;14.00;99.90
15143;DHT22;7672;50.834;6.286;2023-04-23T00:35:23;13.40;99.90
15143;DHT22;7672;50.834;6.286;2023-04-23T00:37:50;13.80;99.90
15143;DHT22;7672;50.834;6.286;2023-04-23T00:40:17;14.10;99.90
15143;DHT22;7672;50.834;6.286;2023-04-23T00:42:46;14.20;99.90
15143;DHT22;7672;50.834;6.286;2023-04-23T00:45:15;14.30;99.90
15143;DHT22;7672;50.834;6.286;2023-04-23T00:47:42;13.30;99.90
15143;DHT22;7672;50.834;6.286;2023-04-23T00:50:10;13.30;99.90
15143;DHT22;7672;50.834;6.286;2023-04-23T00:52:38;14.20;99.90
15143;DHT22;7672;50.834;6.286;2023-04-23T00:55:08;13.30;99.90
15143;DHT22;7672;50.834;6.286;2023-04-23T00:57:37;13.30;99.90
15143;DHT22;7672;50.834;6.286;2023-04-23T01:00:05;13.70;99.90
15143;DHT22;7672;50.834;6.286;2023-04-23T01:02:36;13.20;99.90
15143;DHT22;7672;50.834;6.286;2023-04-23T01:05:06;13.40;99.90
15143;DHT22;7672;50.834;6.286;2023-04-23T01:07:36;13.20;99.90
15143;DHT22;7672;50.834;6.286;2023-04-23T01:10:04;13.10;99.90
15143;DHT22;7672;50.834;6.286;2023-04-23T01:12:32;13.10;99.90
15143;DHT22;7672;50.834;6.286;2023-04-23T01:15:00;13.50;99.90
15143;DHT22;7672;50.834;6.286;2023-04-23T01:17:29;13.80;99.90
15143;DHT22;7672;50.834;6.286;2023-04-23T01:19:57;12.90;99.90
15143;DHT22;7672;50.834;6.286;2023-04-23T01:22:25;13.40;99.90
15143;DHT22;7672;50.834;6.286;2023-04-23T01:24:54;12.90;99.90
15143;DHT22;7672;50.834;6.286;2023-04-23T01:27:29;13.80;99.90
15143;DHT22;7672;50.834;6.286;2023-04-23T01:29:57;12.80;99.90
15143;DHT22;7672;50.834;6.286;2023-04-23T01:32:25;12.70;99.90
15143;DHT22;7672;50.834;6.286;2023-04-23T01:34:53;12.70;99.90
15143;DHT22;7672;50.834;6.286;2023-04-23T01:37:28;12.60;99.90
15143;DHT22;7672;50.834;6.286;2023-04-23T01:39:55;13.30;99.90
15143;DHT22;7672;50.834;6.286;2023-04-23T01:42:22;13.10;99.90
15143;DHT22;7672;50.834;6.286;2023-04-23T01:45:03;13.20;99.90
15143;DHT22;7672;50.834;6.286;2023-04-23T01:47:33;12.50;99.90
15143;DHT22;7672;50.834;6.286;2023-04-23T01:50:04;12.40;99.90
15143;DHT22;7672;50.834;6.286;2023-04-23T01:52:32;12.30;99.90
15143;DHT22;7672;50.834;6.286;2023-04-23T01:55:02;12.80;99.90
15143;DHT22;7672;50.834;6.286;2023-04-23T01:57:29;11.70;99.90
15143;DHT22;7672;50.834;6.286;2023-04-23T02:00:07;12.20;99.90
15143;DHT22;7672;50.834;6.286;2023-04-23T02:02:38;12.20;99.90
15143;DHT22;7672;50.834;6.286;2023-04-23T02:05:15;12.10;99.90
15143;DHT22;7672;50.834;6.286;2023-04-23T02:07:51;12.70;99.90
15143;DHT22;7672;50.834;6.286;2023-04-23T02:10:18;12.10;99.90
15143;DHT22;7672;50.834;6.286;2023-04-23T02:12:46;12.10;99.90
15143;DHT22;7672;50.834;6.286;2023-04-23T02:15:14;12.80;99.90
15143;DHT22;7672;50.834;6.286;2023-04-23T02:17:46;12.90;99.90
15143;DHT22;7672;50.834;6.286;2023-04-23T02:20:17;11.90;99.90
15143;DHT22;7672;50.834;6.286;2023-04-23T02:22:47;13.00;99.90
15143;DHT22;7672;50.834;6.286;2023-04-23T02:25:16;13.00;99.90
15143;DHT22;7672;50.834;6.286;2023-04-23T02:27:47;12.70;99.90
15143;DHT22;7672;50.834;6.286;2023-04-23T02:30:16;12.80;99.90
15143;DHT22;7672;50.834;6.286;2023-04-23T02:32:48;13.00;99.90
15143;DHT22;7672;50.834;6.286;2023-04-23T02:35:15;12.10;99.90
15143;DHT22;7672;50.834;6.286;2023-04-23T02:37:44;11.40;99.90
15143;DHT22;7672;50.834;6.286;2023-04-23T02:40:11;12.10;99.90
15143;DHT22;7672;50.834;6.286;2023-04-23T02:42:38;12.10;99.90
15143;DHT22;7672;50.834;6.286;2023-04-23T02:45:09;13.00;99.90
15143;DHT22;7672;50.834;6.286;2023-04-23T02:47:36;12.20;99.90
15143;DHT22;7672;50.834;6.286;2023-04-23T02:50:05;12.20;99.90
15143;DHT22;7672;50.834;6.286;2023-04-23T02:52:49;12.20;99.90
15143;DHT22;7672;50.834;6.286;2023-04-23T02:55:22;12.60;99.90
15143;DHT22;7672;50.834;6.286;2023-04-23T02:58:00;11.90;99.90
15143;DHT22;7672;50.834;6.286;2023-04-23T03:00:27;13.20;99.90
15143;DHT22;7672;50.834;6.286;2023-04-23T03:02:55;13.00;99.90
15143;DHT22;7672;50.834;6.286;2023-04-23T03:05:22;13.40;99.90
15143;DHT22;7672;50.834;6.286;2023-04-23T03:07:52;11.60;99.90
15143;DHT22;7672;50.834;6.286;2023-04-23T03:10:23;13.50;99.90
15143;DHT22;7672;50.834;6.286;2023-04-23T03:12:53;12.50;99.90
15143;DHT22;7672;50.834;6.286;2023-04-23T03:15:24;12.70;99.90
15143;DHT22;7672;50.834;6.286;2023-04-23T03:21:25;13.40;99.90
15143;DHT22;7672;50.834;6.286;2023-04-23T03:24:11;13.90;99.90
15143;DHT22;7672;50.834;6.286;2023-04-23T03:26:51;12.80;99.90
15143;DHT22;7672;50.834;6.286;2023-04-23T03:29:40;13.80;99.90
15143;DHT22;7672;50.834;6.286;2023-04-23T03:32:18;13.00;99.90
15143;DHT22;7672;50.834;6.286;2023-04-23T03:34:53;13.00;99.90
15143;DHT22;7672;50.834;6.286;2023-04-23T03:37:52;12.90;99.90
15143;DHT22;7672;50.834;6.286;2023-04-23T03:40:21;13.10;99.90
15143;DHT22;7672;50.834;6.286;2023-04-23T03:42:52;13.70;99.90
15143;DHT22;7672;50.834;6.286;2023-04-23T03:45:28;12.90;99.90
15143;DHT22;7672;50.834;6.286;2023-04-23T03:48:01;13.20;99.90
15143;DHT22;7672;50.834;6.286;2023-04-23T03:54:34;13.30;99.90
15143;DHT22;7672;50.834;6.286;2023-04-23T03:57:26;13.40;99.90
15143;DHT22;7672;50.834;6.286;2023-04-23T04:00:32;14.00;99.90
15143;DHT22;7672;50.834;6.286;2023-04-23T04:03:33;13.40;99.90
15143;DHT22;7672;50.834;6.286;2023-04-23T04:14:32;13.60;99.90
15143;DHT22;7672;50.834;6.286;2023-04-23T07:34:23;21.70;99.90
15143;DHT22;7672;50.834;6.286;2023-04-23T07:37:08;22.70;99.90
15143;DHT22;7672;50.834;6.286;2023-04-23T07:39:44;23.60;99.90
15143;DHT22;7672;50.834;6.286;2023-04-23T07:42:21;24.50;99.90
15143;DHT22;7672;50.834;6.286;2023-04-23T07:44:53;25.50;99.90
15143;DHT22;7672;50.834;6.286;2023-04-23T07:47:36;26.10;99.90
15143;DHT22;7672;50.834;6.286;2023-04-23T07:50:06;27.30;99.90
15143;DHT22;7672;50.834;6.286;2023-04-23T07:52:45;28.10;99.90
15143;DHT22;7672;50.834;6.286;2023-04-23T07:55:13;28.90;99.90
15143;DHT22;7672;50.834;6.286;2023-04-23T07:57:40;29.50;99.90
15143;DHT22;7672;50.834;6.286;2023-04-23T08:00:20;30.20;99.90
15143;DHT22;7672;50.834;6.286;2023-04-23T08:02:57;31.00;99.90
15143;DHT22;7672;50.834;6.286;2023-04-23T08:05:33;31.80;99.90
15143;DHT22;7672;50.834;6.286;2023-04-23T08:08:03;31.10;99.90
15143;DHT22;7672;50.834;6.286;2023-04-23T08:10:30;32.60;99.90
15143;DHT22;7672;50.834;6.286;2023-04-23T08:13:21;32.80;99.90
15143;DHT22;7672;50.834;6.286;2023-04-23T08:15:49;33.10;99.90
15143;DHT22;7672;50.834;6.286;2023-04-23T08:18:27;33.40;99.90
15143;DHT22;7672;50.834;6.286;2023-04-23T08:20:54;34.20;99.90
15143;DHT22;7672;50.834;6.286;2023-04-23T08:23:22;35.10;99.90
15143;DHT22;7672;50.834;6.286;2023-04-23T08:25:49;34.70;99.90
15143;DHT22;7672;50.834;6.286;2023-04-23T08:28:17;35.30;99.90
15143;DHT22;7672;50.834;6.286;2023-04-23T08:30:45;35.60;99.90
15143;DHT22;7672;50.834;6.286;2023-04-23T08:33:12;35.60;99.70
15143;DHT22;7672;50.834;6.286;2023-04-23T08:35:40;35.90;98.20
15143;DHT22;7672;50.834;6.286;2023-04-23T08:38:07;36.00;98.10
15143;DHT22;7672;50.834;6.286;2023-04-23T08:40:35;36.10;98.10
15143;DHT22;7672;50.834;6.286;2023-04-23T08:43:11;35.80;95.50
15143;DHT22;7672;50.834;6.286;2023-04-23T08:45:39;35.80;94.90
15143;DHT22;7672;50.834;6.286;2023-04-23T08:48:08;35.20;96.00
15143;DHT22;7672;50.834;6.286;2023-04-23T08:50:37;36.30;95.90
15143;DHT22;7672;50.834;6.286;2023-04-23T08:53:05;34.70;96.20
15143;DHT22;7672;50.834;6.286;2023-04-23T08:55:34;34.60;95.40
15143;DHT22;7672;50.834;6.286;2023-04-23T08:58:03;34.90;96.00
15143;DHT22;7672;50.834;6.286;2023-04-23T09:00:32;34.40;95.10
15143;DHT22;7672;50.834;6.286;2023-04-23T09:03:02;34.20;94.60
15143;DHT22;7672;50.834;6.286;2023-04-23T09:05:32;34.10;95.80
15143;DHT22;7672;50.834;6.286;2023-04-23T09:07:59;33.50;95.20
15143;DHT22;7672;50.834;6.286;2023-04-23T09:10:27;33.20;95.50
15143;DHT22;7672;50.834;6.286;2023-04-23T09:12:54;32.90;95.80
15143;DHT22;7672;50.834;6.286;2023-04-23T09:15:21;32.50;96.20
15143;DHT22;7672;50.834;6.286;2023-04-23T09:17:50;32.00;96.50
15143;DHT22;7672;50.834;6.286;2023-04-23T09:20:17;31.80;96.50
15143;DHT22;7672;50.834;6.286;2023-04-23T09:22:46;32.60;96.40
15143;DHT22;7672;50.834;6.286;2023-04-23T09:25:17;31.10;94.90
15143;DHT22;7672;50.834;6.286;2023-04-23T09:27:45;30.60;96.10
15143;DHT22;7672;50.834;6.286;2023-04-23T09:30:14;30.30;96.10
15143;DHT22;7672;50.834;6.286;2023-04-23T09:32:43;29.80;96.40
15143;DHT22;7672;50.834;6.286;2023-04-23T09:35:16;29.90;96.50
15143;DHT22;7672;50.834;6.286;2023-04-23T09:37:48;29.80;96.90
15143;DHT22;7672;50.834;6.286;2023-04-23T09:40:17;28.60;97.90
15143;DHT22;7672;50.834;6.286;2023-04-23T09:42:50;28.20;98.20
15143;DHT22;7672;50.834;6.286;2023-04-23T09:45:22;28.20;98.10
15143;DHT22;7672;50.834;6.286;2023-04-23T09:47:56;28.10;98.50
15143;DHT22;7672;50.834;6.286;2023-04-23T09:50:37;27.30;98.80
15143;DHT22;7672;50.834;6.286;2023-04-23T09:53:06;26.90;99.80
15143;DHT22;7672;50.834;6.286;2023-04-23T09:55:37;26.90;99.90
15143;DHT22;7672;50.834;6.286;2023-04-23T09:58:12;26.50;99.90
15143;DHT22;7672;50.834;6.286;2023-04-23T10:00:39;26.60;99.90
15143;DHT22;7672;50.834;6.286;2023-04-23T10:03:07;26.30;99.90
15143;DHT22;7672;50.834;6.286;2023-04-23T10:05:40;27.00;99.90
15143;DHT22;7672;50.834;6.286;2023-04-23T10:08:11;26.10;99.90
15143;DHT22;7672;50.834;6.286;2023-04-23T10:10:43;25.00;99.90
15143;DHT22;7672;50.834;6.286;2023-04-23T10:13:33;25.30;99.90
15143;DHT22;7672;50.834;6.286;2023-04-23T10:16:00;25.70;99.90
15143;DHT22;7672;50.834;6.286;2023-04-23T10:18:47;24.90;99.90
15143;DHT22;7672;50.834;6.286;2023-04-23T10:21:15;24.90;99.90
15143;DHT22;7672;50.834;6.286;2023-04-23T10:23:43;24.70;99.90
15143;DHT22;7672;50.834;6.286;2023-04-23T10:26:14;24.90;99.90
15143;DHT22;7672;50.834;6.286;2023-04-23T10:28:46;24.60;99.90
15143;DHT22;7672;50.834;6.286;2023-04-23T10:31:14;24.30;99.90
15143;DHT22;7672;50.834;6.286;2023-04-23T10:33:42;23.70;96.20
15143;DHT22;7672;50.834;6.286;2023-04-23T10:36:24;23.70;96.20
15143;DHT22;7672;50.834;6.286;2023-04-23T10:38:57;24.10;96.40
15143;DHT22;7672;50.834;6.286;2023-04-23T10:41:41;23.10;96.60
15143;DHT22;7672;50.834;6.286;2023-04-23T10:44:13;23.50;96.90
15143;DHT22;7672;50.834;6.286;2023-04-23T10:46:53;23.50;96.90
15143;DHT22;7672;50.834;6.286;2023-04-23T10:49:30;24.00;96.80
15143;DHT22;7672;50.834;6.286;2023-04-23T10:52:02;23.50;96.60
15143;DHT22;7672;50.834;6.286;2023-04-23T10:54:56;23.40;97.20
15143;DHT22;7672;50.834;6.286;2023-04-23T10:57:23;23.40;96.50
15143;DHT22;7672;50.834;6.286;2023-04-23T10:59:53;23.40;97.60
15143;DHT22;7672;50.834;6.286;2023-04-23T11:02:23;23.30;97.40
15143;DHT22;7672;50.834;6.286;2023-04-23T11:04:56;22.80;97.80
15143;DHT22;7672;50.834;6.286;2023-04-23T11:07:32;22.90;97.40
15143;DHT22;7672;50.834;6.286;2023-04-23T11:10:10;23.30;97.50
15143;DHT22;7672;50.834;6.286;2023-04-23T11:12:40;23.30;97.30
15143;DHT22;7672;50.834;6.286;2023-04-23T11:20:17;23.20;97.00
15143;DHT22;7672;50.834;6.286;2023-04-23T11:22:47;23.30;96.80
15143;DHT22;7672;50.834;6.286;2023-04-23T11:25:15;23.30;96.80
15143;DHT22;7672;50.834;6.286;2023-04-23T11:27:45;23.30;97.10
15143;DHT22;7672;50.834;6.286;2023-04-23T11:30:17;23.20;96.50
15143;DHT22;7672;50.834;6.286;2023-04-23T11:32:49;23.20;96.40
15143;DHT22;7672;50.834;6.286;2023-04-23T11:35:21;23.10;96.00
15143;DHT22;7672;50.834;6.286;2023-04-23T11:37:48;23.00;96.20
15143;DHT22;7672;50.834;6.286;2023-04-23T11:40:16;23.40;97.20
15143;DHT22;7672;50.834;6.286;2023-04-23T11:42:48;22.90;97.00
15143;DHT22;7672;50.834;6.286;2023-04-23T11:45:17;23.00;96.80
15143;DHT22;7672;50.834;6.286;2023-04-23T11:47:49;23.10;96.60
15143;DHT22;7672;50.834;6.286;2023-04-23T11:50:21;23.50;97.90
15143;DHT22;7672;50.834;6.286;2023-04-23T11:52:49;22.80;97.50
15143;DHT22;7672;50.834;6.286;2023-04-23T11:55:16;23.60;97.70
15143;DHT22;7672;50.834;6.286;2023-04-23T11:57:46;23.90;98.10
15143;DHT22;7672;50.834;6.286;2023-04-23T12:00:21;24.10;97.50
15143;DHT22;7672;50.834;6.286;2023-04-23T12:02:58;24.30;95.80
15143;DHT22;7672;50.834;6.286;2023-04-23T12:05:37;24.50;95.10
15143;DHT22;7672;50.834;6.286;2023-04-23T12:08:31;24.60;95.20
15143;DHT22;7672;50.834;6.286;2023-04-23T12:11:04;24.70;95.20
15143;DHT22;7672;50.834;6.286;2023-04-23T12:13:33;24.70;94.80
15143;DHT22;7672;50.834;6.286;2023-04-23T12:16:02;24.80;95.00
15143;DHT22;7672;50.834;6.286;2023-04-23T12:18:34;24.80;94.20
15143;DHT22;7672;50.834;6.286;2023-04-23T12:21:07;24.80;93.90
15143;DHT22;7672;50.834;6.286;2023-04-23T12:23:35;24.80;93.50
15143;DHT22;7672;50.834;6.286;2023-04-23T12:26:08;24.80;93.50
15143;DHT22;7672;50.834;6.286;2023-04-23T12:28:45;24.70;93.70
15143;DHT22;7672;50.834;6.286;2023-04-23T12:31:24;24.40;93.10
15143;DHT22;7672;50.834;6.286;2023-04-23T12:34:06;24.60;93.00
15143;DHT22;7672;50.834;6.286;2023-04-23T12:36:37;24.60;93.60
15143;DHT22;7672;50.834;6.286;2023-04-23T12:39:28;24.90;94.30
15143;DHT22;7672;50.834;6.286;2023-04-23T12:42:07;24.50;94.30
15143;DHT22;7672;50.834;6.286;2023-04-23T12:44:37;24.60;93.90
15143;DHT22;7672;50.834;6.286;2023-04-23T12:47:09;24.50;93.00
15143;DHT22;7672;50.834;6.286;2023-04-23T12:49:52;25.00;92.90
15143;DHT22;7672;50.834;6.286;2023-04-23T12:52:34;24.50;93.20
15143;DHT22;7672;50.834;6.286;2023-04-23T12:55:17;24.60;93.70
15143;DHT22;7672;50.834;6.286;2023-04-23T12:57:58;24.60;93.20
15143;DHT22;7672;50.834;6.286;2023-04-23T13:00:28;24.50;93.40
15143;DHT22;7672;50.834;6.286;2023-04-23T13:02:57;24.50;93.20
15143;DHT22;7672;50.834;6.286;2023-04-23T13:05:24;24.40;93.00
15143;DHT22;7672;50.834;6.286;2023-04-23T13:08:00;24.40;92.70
15143;DHT22;7672;50.834;6.286;2023-04-23T13:10:44;24.20;92.30
15143;DHT22;7672;50.834;6.286;2023-04-23T13:13:33;23.90;91.90
15143;DHT22;7672;50.834;6.286;2023-04-23T13:16:00;23.70;92.80
15143;DHT22;7672;50.834;6.286;2023-04-23T13:18:34;23.50;93.30
15143;DHT22;7672;50.834;6.286;2023-04-23T13:21:03;23.40;93.40
15143;DHT22;7672;50.834;6.286;2023-04-23T13:23:30;23.20;93.90
15143;DHT22;7672;50.834;6.286;2023-04-23T13:37:30;22.40;94.50
15143;DHT22;7672;50.834;6.286;2023-04-23T13:39:57;22.40;95.50
15143;DHT22;7672;50.834;6.286;2023-04-23T13:42:24;22.30;95.40
15143;DHT22;7672;50.834;6.286;2023-04-23T13:44:51;22.10;95.30
15143;DHT22;7672;50.834;6.286;2023-04-23T13:47:18;22.10;95.20
15143;DHT22;7672;50.834;6.286;2023-04-23T13:49:44;22.00;96.30
15143;DHT22;7672;50.834;6.286;2023-04-23T13:52:11;21.90;97.50
15143;DHT22;7672;50.834;6.286;2023-04-23T13:54:38;22.10;97.70
15143;DHT22;7672;50.834;6.286;2023-04-23T13:57:05;21.20;98.50
15143;DHT22;7672;50.834;6.286;2023-04-23T13:59:32;21.20;98.00
15143;DHT22;7672;50.834;6.286;2023-04-23T14:01:59;20.90;98.40
15143;DHT22;7672;50.834;6.286;2023-04-23T14:04:25;20.70;99.00
15143;DHT22;7672;50.834;6.286;2023-04-23T14:06:53;20.50;98.90
15143;DHT22;7672;50.834;6.286;2023-04-23T14:09:20;20.50;98.80
15143;DHT22;7672;50.834;6.286;2023-04-23T14:11:48;20.30;99.70
15143;DHT22;7672;50.834;6.286;2023-04-23T14:14:15;20.20;99.40
15143;DHT22;7672;50.834;6.286;2023-04-23T14:16:42;20.10;99.50
15143;DHT22;7672;50.834;6.286;2023-04-23T14:19:08;19.80;98.70
15143;DHT22;7672;50.834;6.286;2023-04-23T14:32:40;20.10;99.90
15143;DHT22;7672;50.834;6.286;2023-04-23T14:35:08;19.30;99.90
15143;DHT22;7672;50.834;6.286;2023-04-23T14:37:35;19.40;99.90
15143;DHT22;7672;50.834;6.286;2023-04-23T14:40:02;19.50;99.90
15143;DHT22;7672;50.834;6.286;2023-04-23T14:42:28;19.10;99.90
15143;DHT22;7672;50.834;6.286;2023-04-23T14:44:57;18.90;99.90
15143;DHT22;7672;50.834;6.286;2023-04-23T14:47:25;18.70;99.90
15143;DHT22;7672;50.834;6.286;2023-04-23T14:49:52;18.60;99.90
15143;DHT22;7672;50.834;6.286;2023-04-23T14:52:19;18.50;99.90
15143;DHT22;7672;50.834;6.286;2023-04-23T14:54:46;18.30;99.90
15143;DHT22;7672;50.834;6.286;2023-04-23T14:57:13;18.20;99.90
15143;DHT22;7672;50.834;6.286;2023-04-23T14:59:40;18.10;99.90
15143;DHT22;7672;50.834;6.286;2023-04-23T15:02:07;18.00;99.90
15143;DHT22;7672;50.834;6.286;2023-04-23T15:04:34;18.00;99.90
15143;DHT22;7672;50.834;6.286;2023-04-23T15:07:01;17.90;99.90
15143;DHT22;7672;50.834;6.286;2023-04-23T15:09:28;17.80;99.90
15143;DHT22;7672;50.834;6.286;2023-04-23T15:11:54;17.80;99.90
15143;DHT22;7672;50.834;6.286;2023-04-23T15:14:25;17.70;99.90
15143;DHT22;7672;50.834;6.286;2023-04-23T15:16:57;17.60;99.90
15143;DHT22;7672;50.834;6.286;2023-04-23T15:19:24;17.50;99.90
15143;DHT22;7672;50.834;6.286;2023-04-23T15:21:50;17.50;99.90
15143;DHT22;7672;50.834;6.286;2023-04-23T15:24:17;17.50;99.90
15143;DHT22;7672;50.834;6.286;2023-04-23T15:26:44;17.50;99.90
15143;DHT22;7672;50.834;6.286;2023-04-23T15:29:11;17.40;99.90
15143;DHT22;7672;50.834;6.286;2023-04-23T15:31:39;17.40;99.90
15143;DHT22;7672;50.834;6.286;2023-04-23T15:34:06;17.70;99.90
15143;DHT22;7672;50.834;6.286;2023-04-23T15:36:35;17.40;99.90
15143;DHT22;7672;50.834;6.286;2023-04-23T15:39:03;17.50;99.90
15143;DHT22;7672;50.834;6.286;2023-04-23T15:41:30;17.30;99.90
15143;DHT22;7672;50.834;6.286;2023-04-23T15:43:57;17.60;99.90
15143;DHT22;7672;50.834;6.286;2023-04-23T15:46:23;17.00;99.90
15143;DHT22;7672;50.834;6.286;2023-04-23T15:48:50;16.80;99.90
15143;DHT22;7672;50.834;6.286;2023-04-23T15:51:17;16.50;99.90
15143;DHT22;7672;50.834;6.286;2023-04-23T15:53:44;16.30;99.90
15143;DHT22;7672;50.834;6.286;2023-04-23T15:56:11;16.00;99.90
15143;DHT22;7672;50.834;6.286;2023-04-23T15:58:38;15.80;99.90
15143;DHT22;7672;50.834;6.286;2023-04-23T16:01:05;16.00;99.90
15143;DHT22;7672;50.834;6.286;2023-04-23T16:03:33;15.50;99.90
15143;DHT22;7672;50.834;6.286;2023-04-23T16:06:00;15.40;99.90
15143;DHT22;7672;50.834;6.286;2023-04-23T16:08:27;15.30;99.90
15143;DHT22;7672;50.834;6.286;2023-04-23T16:10:54;15.30;99.90
15143;DHT22;7672;50.834;6.286;2023-04-23T16:13:23;15.30;99.90
15143;DHT22;7672;50.834;6.286;2023-04-23T16:15:50;15.30;99.90
15143;DHT22;7672;50.834;6.286;2023-04-23T16:18:17;15.30;99.90
15143;DHT22;7672;50.834;6.286;2023-04-23T16:20:43;15.30;99.90
15143;DHT22;7672;50.834;6.286;2023-04-23T16:23:10;15.20;99.90
15143;DHT22;7672;50.834;6.286;2023-04-23T16:25:37;15.30;99.90
15143;DHT22;7672;50.834;6.286;2023-04-23T16:28:04;16.10;99.90
15143;DHT22;7672;50.834;6.286;2023-04-23T16:30:31;15.40;99.90
15143;DHT22;7672;50.834;6.286;2023-04-23T16:32:59;15.40;99.90
15143;DHT22;7672;50.834;6.286;2023-04-23T16:35:26;14.50;99.90
15143;DHT22;7672;50.834;6.286;2023-04-23T16:37:54;16.10;99.90
15143;DHT22;7672;50.834;6.286;2023-04-23T16:40:24;15.30;99.90
15143;DHT22;7672;50.834;6.286;2023-04-23T16:42:52;15.20;99.90
15143;DHT22;7672;50.834;6.286;2023-04-23T16:45:19;15.30;99.90
15143;DHT22;7672;50.834;6.286;2023-04-23T16:47:49;16.00;99.90
15143;DHT22;7672;50.834;6.286;2023-04-23T16:50:17;15.10;99.90
15143;DHT22;7672;50.834;6.286;2023-04-23T16:52:48;15.30;99.90
15143;DHT22;7672;50.834;6.286;2023-04-23T16:55:16;15.80;99.90
15143;DHT22;7672;50.834;6.286;2023-04-23T16:57:43;15.30;99.90
15143;DHT22;7672;50.834;6.286;2023-04-23T17:00:10;16.00;99.90
15143;DHT22;7672;50.834;6.286;2023-04-23T17:02:38;15.30;99.90
15143;DHT22;7672;50.834;6.286;2023-04-23T17:05:07;15.80;99.90
15143;DHT22;7672;50.834;6.286;2023-04-23T17:07:35;15.30;99.90
15143;DHT22;7672;50.834;6.286;2023-04-23T17:10:02;15.30;99.90
15143;DHT22;7672;50.834;6.286;2023-04-23T17:12:29;15.30;99.90
15143;DHT22;7672;50.834;6.286;2023-04-23T17:14:55;15.30;99.90
15143;DHT22;7672;50.834;6.286;2023-04-23T17:17:22;15.20;99.90
15143;DHT22;7672;50.834;6.286;2023-04-23T17:19:49;15.30;99.90
15143;DHT22;7672;50.834;6.286;2023-04-23T17:22:16;16.00;99.90
15143;DHT22;7672;50.834;6.286;2023-04-23T17:24:43;15.70;99.90
15143;DHT22;7672;50.834;6.286;2023-04-23T17:27:10;15.40;99.90
15143;DHT22;7672;50.834;6.286;2023-04-23T17:29:37;15.30;99.90
15143;DHT22;7672;50.834;6.286;2023-04-23T17:32:04;15.20;99.90
15143;DHT22;7672;50.834;6.286;2023-04-23T17:34:33;15.20;99.90
15143;DHT22;7672;50.834;6.286;2023-04-23T17:36:59;15.30;99.90
15143;DHT22;7672;50.834;6.286;2023-04-23T17:39:26;15.90;99.90
15143;DHT22;7672;50.834;6.286;2023-04-23T17:41:53;15.90;99.90
15143;DHT22;7672;50.834;6.286;2023-04-23T17:44:23;15.60;99.90
15143;DHT22;7672;50.834;6.286;2023-04-23T17:46:50;15.30;99.90
15143;DHT22;7672;50.834;6.286;2023-04-23T17:49:20;15.30;99.90
15143;DHT22;7672;50.834;6.286;2023-04-23T17:51:51;15.40;99.90
15143;DHT22;7672;50.834;6.286;2023-04-23T17:54:18;15.50;99.90
15143;DHT22;7672;50.834;6.286;2023-04-23T17:56:55;15.40;99.90
15143;DHT22;7672;50.834;6.286;2023-04-23T17:59:38;15.20;99.90
15143;DHT22;7672;50.834;6.286;2023-04-23T18:02:11;15.70;99.90
15143;DHT22;7672;50.834;6.286;2023-04-23T18:04:41;15.30;99.90
15143;DHT22;7672;50.834;6.286;2023-04-23T18:07:12;15.10;99.90
15143;DHT22;7672;50.834;6.286;2023-04-23T18:10:05;15.40;99.90
15143;DHT22;7672;50.834;6.286;2023-04-23T18:12:34;15.40;99.90
15143;DHT22;7672;50.834;6.286;2023-04-23T18:15:04;15.40;99.90
15143;DHT22;7672;50.834;6.286;2023-04-23T18:17:32;15.40;99.90
15143;DHT22;7672;50.834;6.286;2023-04-23T18:20:11;15.40;99.90
15143;DHT22;7672;50.834;6.286;2023-04-23T18:22:51;15.40;99.90
15143;DHT22;7672;50.834;6.286;2023-04-23T18:25:48;15.60;99.90
15143;DHT22;7672;50.834;6.286;2023-04-23T18:32:10;15.80;99.90
15143;DHT22;7672;50.834;6.286;2023-04-23T18:45:37;15.40;99.90
15143;DHT22;7672;50.834;6.286;2023-04-23T18:51:17;15.20;99.90
15143;DHT22;7672;50.834;6.286;2023-04-23T18:53:49;15.20;99.90
15143;DHT22;7672;50.834;6.286;2023-04-23T18:56:26;14.90;99.90
15143;DHT22;7672;50.834;6.286;2023-04-23T18:58:59;14.90;99.90
15143;DHT22;7672;50.834;6.286;2023-04-23T19:01:26;16.10;99.90
15143;DHT22;7672;50.834;6.286;2023-04-23T19:03:57;15.00;99.90
15143;DHT22;7672;50.834;6.286;2023-04-23T19:06:25;14.90;99.90
15143;DHT22;7672;50.834;6.286;2023-04-23T19:08:57;15.90;99.90
15143;DHT22;7672;50.834;6.286;2023-04-23T19:11:25;14.80;99.90
15143;DHT22;7672;50.834;6.286;2023-04-23T19:14:03;15.80;99.90
15143;DHT22;7672;50.834;6.286;2023-04-23T19:16:32;14.70;99.90
15143;DHT22;7672;50.834;6.286;2023-04-23T19:19:09;14.70;99.90
15143;DHT22;7672;50.834;6.286;2023-04-23T19:21:47;14.70;99.90
15143;DHT22;7672;50.834;6.286;2023-04-23T19:24:14;14.60;99.90
15143;DHT22;7672;50.834;6.286;2023-04-23T19:26:45;14.70;99.90
15143;DHT22;7672;50.834;6.286;2023-04-23T19:29:13;14.50;99.90
15143;DHT22;7672;50.834;6.286;2023-04-23T19:31:43;14.60;99.90
15143;DHT22;7672;50.834;6.286;2023-04-23T19:34:15;14.70;99.90
15143;DHT22;7672;50.834;6.286;2023-04-23T19:36:45;15.60;99.90
15143;DHT22;7672;50.834;6.286;2023-04-23T19:39:15;13.90;99.90
15143;DHT22;7672;50.834;6.286;2023-04-23T19:42:04;14.70;99.90
15143;DHT22;7672;50.834;6.286;2023-04-23T19:45:14;16.00;99.90
15143;DHT22;7672;50.834;6.286;2023-04-23T19:47:55;14.50;99.90
15143;DHT22;7672;50.834;6.286;2023-04-23T19:50:38;14.40;99.90
15143;DHT22;7672;50.834;6.286;2023-04-23T19:53:13;13.80;99.90
15143;DHT22;7672;50.834;6.286;2023-04-23T19:55:50;14.40;99.90
15143;DHT22;7672;50.834;6.286;2023-04-23T19:58:28;15.00;99.90
15143;DHT22;7672;50.834;6.286;2023-04-23T20:01:07;15.50;99.90
15143;DHT22;7672;50.834;6.286;2023-04-23T20:03:47;14.40;99.90
15143;DHT22;7672;50.834;6.286;2023-04-23T20:06:55;14.70;99.90
15143;DHT22;7672;50.834;6.286;2023-04-23T20:09:54;14.60;99.90
15143;DHT22;7672;50.834;6.286;2023-04-23T20:12:48;14.50;99.90
15143;DHT22;7672;50.834;6.286;2023-04-23T20:16:12;15.40;99.90
15143;DHT22;7672;50.834;6.286;2023-04-23T20:23:29;14.60;99.90
15143;DHT22;7672;50.834;6.286;2023-04-23T20:26:10;14.90;99.90
15143;DHT22;7672;50.834;6.286;2023-04-23T20:28:59;15.10;99.90
15143;DHT22;7672;50.834;6.286;2023-04-23T20:32:00;15.30;99.90
15143;DHT22;7672;50.834;6.286;2023-04-23T20:34:33;14.50;99.90
15143;DHT22;7672;50.834;6.286;2023-04-23T20:37:39;15.20;99.90